Flight Track Log - Related Links

Times and Time Zones

All times are in EDT time to prevent confusion due to time zone crossing. See the UAL4543 flight status page for this flight to view local times or setup timezone preferences in your user account.

Time Position Orientation Groundspeed Altitude Reporting Facility
EDT Latitude Longitude Course Direction KTS MPH feet Rate Location/Type
Sun 03:40:11 PM 35.8686 -78.8139 11° North 159 183 1,300  Level Washington Center
Sun 03:40:27 PM 35.8556 -78.8286 222° Southwest 171 197 1,900 1,807 Climbing Washington Center
Sun 03:41:34 PM 35.8272 -78.8814 237° Southwest 210 242 3,800 1,796 Climbing Washington Center
Sun 03:42:44 PM 35.8906 -78.9278 329° Northwest 276 318 6,000 2,123 Climbing Washington Center
Sun 03:43:00 PM 36.1954 -78.6568 19° North  Level FlightAware Approximate
Sun 03:43:44 PM 35.9628 -78.8844 26° Northeast 281 323 8,400  Level Washington Center
Sun 03:44:00 PM 36.2780 -78.6240 15° North  Level FlightAware Approximate
Sun 03:44:45 PM 36.0369 -78.8386 27° Northeast 284 327 10,500  Level Washington Center
Sun 03:45:00 PM 36.3619 -78.5970 11° North  Level FlightAware Approximate
Sun 03:45:43 PM 36.1175 -78.7881 27° Northeast 296 341 11,300  Level Washington Center
Sun 03:46:44 PM 36.2111 -78.7250 29° Northeast 339 390 12,800 1,426 Climbing Washington Center
Sun 03:47:45 PM 36.3022 -78.6667 27° Northeast 362 417 14,200 1,361 Climbing Washington Center
Sun 03:48:43 PM 36.3894 -78.6083 28° Northeast 362 417 15,500 1,109 Climbing Washington Center
Sun 03:49:44 PM 36.4822 -78.5706 18° North 362 417 16,400 1,041 Climbing Washington Center
Sun 03:50:44 PM 36.5831 -78.5331 17° North 368 423 17,600 1,190 Climbing Washington Center
Sun 03:51:45 PM 36.6842 -78.4928 18° North 373 429 18,800 1,438 Climbing Washington Center
Sun 03:52:45 PM 36.7900 -78.4397 22° Northeast 373 429 20,500 1,627 Climbing Washington Center
Sun 03:53:43 PM 36.8772 -78.3675 34° Northeast 368 423 22,000 1,513 Climbing Washington Center
Sun 03:54:44 PM 36.9664 -78.2928 34° Northeast 373 429 23,500 1,426 Climbing Washington Center
Sun 03:55:45 PM 37.0533 -78.2256 32° Northeast 373 429 24,900 1,140 Climbing Washington Center
Sun 03:56:45 PM 37.1322 -78.1578 34° Northeast 381 438 25,800 1,000 Climbing Washington Center
Sun 03:57:45 PM 37.2319 -78.0778 33° Northeast 381 438 26,900 1,017 Climbing Washington Center
Sun 03:58:43 PM 37.3231 -78.0025 33° Northeast 381 438 27,800 1,008 Climbing Washington Center
Sun 03:59:44 PM 37.4144 -77.9242 34° Northeast 381 438 28,900 595 Climbing Washington Center
Sun 04:00:44 PM 37.5075 -77.8458 34° Northeast 381 438 29,000 50 Climbing Washington Center
Sun 04:01:45 PM 37.5967 -77.7672 35° Northeast 381 438 29,000  Level Washington Center
Sun 04:02:43 PM 37.6900 -77.6833 35° Northeast 393 452 29,000  Level Washington Center
Sun 04:03:44 PM 37.7853 -77.5967 36° Northeast 404 465 29,000  Level Washington Center
Sun 04:04:45 PM 37.8847 -77.5044 36° Northeast 424 488 29,000  Level Washington Center
Sun 04:05:43 PM 37.9822 -77.4069 38° Northeast 435 501 29,000  Level Washington Center
Sun 04:06:44 PM 38.0694 -77.2956 45° Northeast 441 507 29,000  Level Washington Center
Sun 04:07:44 PM 38.1564 -77.1814 46° Northeast 441 507 29,000  Level Washington Center
Sun 04:08:45 PM 38.2456 -77.0617 46° Northeast 453 521 29,000  Level Washington Center
Sun 04:09:43 PM 38.3386 -76.9575 41° Northeast 448 516 29,000  Level Washington Center
Sun 04:10:44 PM 38.4417 -76.8642 35° Northeast 443 510 29,000  Level Washington Center
Sun 04:11:45 PM 38.5450 -76.7650 37° Northeast 453 521 29,000  Level Washington Center
Sun 04:12:44 PM 38.6481 -76.6708 36° Northeast 453 521 29,000  Level Washington Center
Sun 04:13:45 PM 38.7425 -76.5792 37° Northeast 445 512 29,000  Level Washington Center
Sun 04:14:45 PM 38.8392 -76.4950 34° Northeast 426 490 29,000  Level Washington Center
Sun 04:15:45 PM 38.9336 -76.4056 36° Northeast 421 484 29,000  Level Washington Center
Sun 04:16:43 PM 39.0278 -76.3158 36° Northeast 421 484 29,000 -303 Level Washington Center
Sun 04:17:44 PM 39.1242 -76.2283 35° Northeast 421 484 28,400 -843 Descending Washington Center
Sun 04:18:44 PM 39.2142 -76.1461 35° Northeast 427 491 27,300 -694 Descending Washington Center
Sun 04:19:45 PM 39.3042 -76.0528 39° Northeast 427 491 27,000 -198 Descending Washington Center
Sun 04:20:45 PM 39.3900 -75.9514 42° Northeast 420 483 26,900 -51 Descending Washington Center
Sun 04:21:43 PM 39.4778 -75.8497 42° Northeast 420 483 26,900 -864 Level Washington Center
Sun 04:22:43 PM 39.5633 -75.7503 42° Northeast 414 476 25,200 -1,785 Descending Washington Center
Sun 04:23:44 PM 39.6428 -75.6508 44° Northeast 401 461 23,300 -1,900 Descending Washington Center
Sun 04:24:43 PM 39.7219 -75.5564 43° Northeast 395 455 21,400 -1,966 Descending Washington Center
Sun 04:25:43 PM 39.8053 -75.4564 43° Northeast 380 437 19,400 -1,934 Descending Washington Center
Sun 04:26:44 PM 39.8800 -75.3644 43° Northeast 374 430 17,500 -2,000 Descending Washington Center
Sun 04:27:43 PM 39.9528 -75.2803 42° Northeast 362 417 15,400 -1,866 Descending Washington Center
Sun 04:28:43 PM 40.0169 -75.1986 44° Northeast 340 391 13,800 -1,736 Descending Washington Center
Sun 04:29:44 PM 40.0814 -75.1197 43° Northeast 322 371 11,900 -1,412 Descending Washington Center
Sun 04:31:33 PM 40.2000 -74.9833 41° Northeast 293 337 9,800 -1,172 Descending New York TRACON
Sun 04:32:33 PM 40.2500 -74.9167 45° Northeast 294 338 8,600 -967 Descending New York TRACON
Sun 04:34:33 PM 40.3333 -74.7500 57° Northeast 270 311 6,900 -833 Descending New York TRACON
Sun 04:35:33 PM 40.3667 -74.6667 62° Northeast 266 306 6,100 -397 Descending New York TRACON
Sun 04:36:34 PM 40.4000 -74.5833 62° Northeast 259 298 6,100 -50 Level New York TRACON
Sun 04:37:33 PM 40.4667 -74.5667 11° North 258 297 6,000 -50 Descending New York TRACON
Sun 04:38:34 PM 40.5500 -74.5833 351° North 256 295 6,000  Level New York TRACON
Sun 04:39:33 PM 40.6167 -74.5833 360° North 259 298 6,000  Level New York TRACON
Sun 04:40:33 PM 40.6833 -74.5833 360° North 266 306 6,000  Level New York TRACON
Sun 04:41:33 PM 40.7667 -74.6000 351° North 264 304 6,000 -50 Level New York TRACON
Sun 04:42:33 PM 40.8333 -74.5833 11° North 240 276 5,900 -250 Descending New York TRACON
Sun 04:44:00 PM 40.7757 -74.4129 123° Southeast  Level Estimated
Sun 04:45:33 PM 41.0000 -74.4833 123° Southeast 236 272 5,000  Level New York TRACON
Sun 04:46:33 PM 41.0167 -74.4000 75° East 235 270 5,000  Level New York TRACON
Sun 04:47:34 PM 41.0167 -74.3333 90° East 220 253 5,000 -248 Level New York TRACON
Sun 04:48:34 PM 41.0000 -74.2500 105° East 206 237 4,500 -504 Descending New York TRACON
Sun 04:49:33 PM 40.9833 -74.1833 108° East 187 215 4,000 -250 Descending New York TRACON
Sun 04:50:34 PM 40.9667 -74.1333 114° Southeast 162 186 4,000 -200 Level New York TRACON
Sun 04:51:33 PM 40.9333 -74.1000 143° Southeast 158 182 3,600 -400 Descending New York TRACON
Sun 04:53:34 PM 40.8500 -74.1000 180° South 149 171 2,800 -397 Descending New York TRACON

Login

Don't have an account? Register now (free) for customized features, flight alerts, and more!